sensor_id;sensor_type;location;lat;lon;timestamp;pressure;altitude;pressure_sealevel;temperature;humidity
51067;BME280;37112;45.892;-123.962;2022-09-04T00:24:24;101907.28;;;18.73;78.92
51067;BME280;37112;45.892;-123.962;2022-09-04T00:26:46;101910.58;;;18.67;78.76
51067;BME280;37112;45.892;-123.962;2022-09-04T00:29:08;101910.61;;;18.53;78.38
51067;BME280;37112;45.892;-123.962;2022-09-04T00:31:27;101914.81;;;18.35;78.33
51067;BME280;37112;45.892;-123.962;2022-09-04T00:33:50;101914.61;;;18.20;78.65
51067;BME280;37112;45.892;-123.962;2022-09-04T00:36:06;101910.86;;;18.13;79.07
51067;BME280;37112;45.892;-123.962;2022-09-04T00:38:28;101903.00;;;18.08;79.63
51067;BME280;37112;45.892;-123.962;2022-09-04T00:40:43;101900.27;;;18.06;80.06
51067;BME280;37112;45.892;-123.962;2022-09-04T00:45:59;101892.81;;;18.14;80.82
51067;BME280;37112;45.892;-123.962;2022-09-04T00:48:25;101887.07;;;18.16;80.76
51067;BME280;37112;45.892;-123.962;2022-09-04T00:56:09;101884.33;;;18.08;80.72
51067;BME280;37112;45.892;-123.962;2022-09-04T00:58:48;101883.96;;;17.97;80.38
51067;BME280;37112;45.892;-123.962;2022-09-04T01:01:03;101883.80;;;17.86;80.83
51067;BME280;37112;45.892;-123.962;2022-09-04T01:06:14;101886.40;;;17.68;81.40
51067;BME280;37112;45.892;-123.962;2022-09-04T01:08:40;101888.33;;;17.62;81.60
51067;BME280;37112;45.892;-123.962;2022-09-04T01:11:12;101887.80;;;17.57;82.05
51067;BME280;37112;45.892;-123.962;2022-09-04T01:13:32;101884.30;;;17.49;82.03
51067;BME280;37112;45.892;-123.962;2022-09-04T01:15:51;101883.63;;;17.46;82.52
51067;BME280;37112;45.892;-123.962;2022-09-04T01:18:13;101887.46;;;17.40;82.59
51067;BME280;37112;45.892;-123.962;2022-09-04T01:23:20;101875.48;;;17.29;82.87
51067;BME280;37112;45.892;-123.962;2022-09-04T01:25:53;101875.05;;;17.32;83.45
51067;BME280;37112;45.892;-123.962;2022-09-04T01:28:16;101874.04;;;17.33;83.61
51067;BME280;37112;45.892;-123.962;2022-09-04T01:30:36;101869.19;;;17.31;83.64
51067;BME280;37112;45.892;-123.962;2022-09-04T01:33:00;101869.09;;;17.37;84.24
51067;BME280;37112;45.892;-123.962;2022-09-04T01:35:25;101867.74;;;17.43;84.24
51067;BME280;37112;45.892;-123.962;2022-09-04T01:37:54;101863.67;;;17.44;84.07
51067;BME280;37112;45.892;-123.962;2022-09-04T01:40:25;101857.94;;;17.51;84.30
51067;BME280;37112;45.892;-123.962;2022-09-04T01:42:48;101851.27;;;17.55;84.25
51067;BME280;37112;45.892;-123.962;2022-09-04T01:45:04;101846.69;;;17.60;84.29
51067;BME280;37112;45.892;-123.962;2022-09-04T01:47:24;101838.06;;;17.62;84.20
51067;BME280;37112;45.892;-123.962;2022-09-04T01:49:46;101834.12;;;17.64;84.05
51067;BME280;37112;45.892;-123.962;2022-09-04T01:52:29;101836.23;;;17.64;83.60
51067;BME280;37112;45.892;-123.962;2022-09-04T01:54:54;101836.97;;;17.66;83.58
51067;BME280;37112;45.892;-123.962;2022-09-04T01:57:18;101833.73;;;17.69;83.66
51067;BME280;37112;45.892;-123.962;2022-09-04T01:59:41;101842.43;;;17.67;82.89
51067;BME280;37112;45.892;-123.962;2022-09-04T02:02:08;101844.48;;;17.60;82.64
51067;BME280;37112;45.892;-123.962;2022-09-04T02:04:30;101846.39;;;17.51;82.58
51067;BME280;37112;45.892;-123.962;2022-09-04T02:06:49;101850.83;;;17.39;82.47
51067;BME280;37112;45.892;-123.962;2022-09-04T02:09:21;101843.80;;;17.32;82.75
51067;BME280;37112;45.892;-123.962;2022-09-04T02:11:42;101838.89;;;17.23;82.78
51067;BME280;37112;45.892;-123.962;2022-09-04T02:14:15;101842.87;;;17.16;82.86
51067;BME280;37112;45.892;-123.962;2022-09-04T02:16:38;101839.94;;;17.08;83.02
51067;BME280;37112;45.892;-123.962;2022-09-04T02:19:02;101835.53;;;17.05;83.20
51067;BME280;37112;45.892;-123.962;2022-09-04T02:21:23;101826.75;;;17.02;83.49
51067;BME280;37112;45.892;-123.962;2022-09-04T02:23:42;101825.45;;;17.03;83.80
51067;BME280;37112;45.892;-123.962;2022-09-04T02:26:00;101824.13;;;17.04;83.74
51067;BME280;37112;45.892;-123.962;2022-09-04T02:28:25;101819.89;;;17.03;83.75
51067;BME280;37112;45.892;-123.962;2022-09-04T02:30:47;101822.25;;;17.03;83.55
51067;BME280;37112;45.892;-123.962;2022-09-04T02:33:06;101826.25;;;16.92;83.10
51067;BME280;37112;45.892;-123.962;2022-09-04T02:35:26;101824.61;;;16.81;82.88
51067;BME280;37112;45.892;-123.962;2022-09-04T02:37:48;101831.76;;;16.69;82.89
51067;BME280;37112;45.892;-123.962;2022-09-04T02:40:11;101833.08;;;16.56;83.08
51067;BME280;37112;45.892;-123.962;2022-09-04T02:42:32;101839.66;;;16.48;83.21
51067;BME280;37112;45.892;-123.962;2022-09-04T02:45:00;101846.17;;;16.37;83.43
51067;BME280;37112;45.892;-123.962;2022-09-04T02:47:22;101854.48;;;16.26;83.58
51067;BME280;37112;45.892;-123.962;2022-09-04T02:49:44;101854.33;;;16.21;84.10
51067;BME280;37112;45.892;-123.962;2022-09-04T02:52:09;101855.36;;;16.17;84.20
51067;BME280;37112;45.892;-123.962;2022-09-04T02:54:38;101854.34;;;16.16;84.53
51067;BME280;37112;45.892;-123.962;2022-09-04T02:57:03;101852.30;;;16.17;84.65
51067;BME280;37112;45.892;-123.962;2022-09-04T02:59:33;101848.54;;;16.12;84.31
51067;BME280;37112;45.892;-123.962;2022-09-04T03:01:55;101851.10;;;16.09;84.54
51067;BME280;37112;45.892;-123.962;2022-09-04T03:04:14;101852.45;;;16.10;84.94
51067;BME280;37112;45.892;-123.962;2022-09-04T03:06:43;101852.22;;;16.13;85.14
51067;BME280;37112;45.892;-123.962;2022-09-04T03:09:04;101854.93;;;16.18;85.27
51067;BME280;37112;45.892;-123.962;2022-09-04T03:11:20;101860.77;;;16.22;85.13
51067;BME280;37112;45.892;-123.962;2022-09-04T03:13:40;101862.63;;;16.23;85.06
51067;BME280;37112;45.892;-123.962;2022-09-04T03:16:02;101863.92;;;16.25;85.20
51067;BME280;37112;45.892;-123.962;2022-09-04T03:18:21;101869.81;;;16.23;84.97
51067;BME280;37112;45.892;-123.962;2022-09-04T03:20:46;101872.02;;;16.20;85.07
51067;BME280;37112;45.892;-123.962;2022-09-04T03:23:07;101873.13;;;16.17;84.88
51067;BME280;37112;45.892;-123.962;2022-09-04T03:26:03;101879.92;;;16.12;84.93
51067;BME280;37112;45.892;-123.962;2022-09-04T03:28:29;101888.90;;;16.09;85.11
51067;BME280;37112;45.892;-123.962;2022-09-04T03:30:48;101889.63;;;16.06;85.10
51067;BME280;37112;45.892;-123.962;2022-09-04T03:33:07;101887.46;;;16.02;84.94
51067;BME280;37112;45.892;-123.962;2022-09-04T03:35:31;101889.28;;;15.99;85.12
51067;BME280;37112;45.892;-123.962;2022-09-04T03:37:56;101891.04;;;15.95;85.18
51067;BME280;37112;45.892;-123.962;2022-09-04T03:40:35;101899.77;;;15.93;85.41
51067;BME280;37112;45.892;-123.962;2022-09-04T03:42:57;101898.14;;;15.87;85.31
51067;BME280;37112;45.892;-123.962;2022-09-04T03:45:22;101894.24;;;15.84;85.45
51067;BME280;37112;45.892;-123.962;2022-09-04T03:47:49;101892.34;;;15.78;85.33
51067;BME280;37112;45.892;-123.962;2022-09-04T03:50:16;101896.32;;;15.73;85.34
51067;BME280;37112;45.892;-123.962;2022-09-04T03:52:38;101900.92;;;15.68;85.53
51067;BME280;37112;45.892;-123.962;2022-09-04T03:55:10;101901.24;;;15.67;85.94
51067;BME280;37112;45.892;-123.962;2022-09-04T03:57:40;101899.98;;;15.69;86.29
51067;BME280;37112;45.892;-123.962;2022-09-04T04:00:12;101904.91;;;15.70;86.19
51067;BME280;37112;45.892;-123.962;2022-09-04T04:02:36;101905.51;;;15.69;85.98
51067;BME280;37112;45.892;-123.962;2022-09-04T04:07:42;101901.60;;;15.69;86.15
51067;BME280;37112;45.892;-123.962;2022-09-04T04:10:08;101894.41;;;15.72;86.29
51067;BME280;37112;45.892;-123.962;2022-09-04T04:12:43;101897.29;;;15.72;86.18
51067;BME280;37112;45.892;-123.962;2022-09-04T04:15:29;101890.17;;;15.71;86.17
51067;BME280;37112;45.892;-123.962;2022-09-04T04:18:01;101886.33;;;15.70;85.97
51067;BME280;37112;45.892;-123.962;2022-09-04T04:20:25;101877.50;;;15.66;85.82
51067;BME280;37112;45.892;-123.962;2022-09-04T04:23:13;101877.09;;;15.64;85.94
51067;BME280;37112;45.892;-123.962;2022-09-04T04:25:52;101872.91;;;15.62;86.11
51067;BME280;37112;45.892;-123.962;2022-09-04T04:28:17;101869.98;;;15.60;86.06
51067;BME280;37112;45.892;-123.962;2022-09-04T04:30:42;101870.26;;;15.59;86.15
51067;BME280;37112;45.892;-123.962;2022-09-04T04:33:22;101862.52;;;15.57;86.16
51067;BME280;37112;45.892;-123.962;2022-09-04T04:35:51;101855.00;;;15.52;86.15
51067;BME280;37112;45.892;-123.962;2022-09-04T04:38:26;101848.70;;;15.50;86.43
51067;BME280;37112;45.892;-123.962;2022-09-04T04:41:01;101840.23;;;15.48;86.40
51067;BME280;37112;45.892;-123.962;2022-09-04T04:43:22;101837.73;;;15.43;86.19
51067;BME280;37112;45.892;-123.962;2022-09-04T04:45:44;101831.39;;;15.39;86.14
51067;BME280;37112;45.892;-123.962;2022-09-04T04:50:44;101820.05;;;15.29;86.29
51067;BME280;37112;45.892;-123.962;2022-09-04T04:53:08;101826.88;;;15.27;86.53
51067;BME280;37112;45.892;-123.962;2022-09-04T04:55:36;101829.00;;;15.24;86.68
51067;BME280;37112;45.892;-123.962;2022-09-04T05:00:47;101815.67;;;15.20;86.86
51067;BME280;37112;45.892;-123.962;2022-09-04T05:03:10;101816.17;;;15.18;86.89
51067;BME280;37112;45.892;-123.962;2022-09-04T05:05:47;101823.07;;;15.17;86.95
51067;BME280;37112;45.892;-123.962;2022-09-04T05:08:08;101821.71;;;15.16;86.99
51067;BME280;37112;45.892;-123.962;2022-09-04T05:10:33;101823.23;;;15.14;87.01
51067;BME280;37112;45.892;-123.962;2022-09-04T05:13:04;101821.90;;;15.13;86.99
51067;BME280;37112;45.892;-123.962;2022-09-04T05:15:22;101814.02;;;15.14;87.14
51067;BME280;37112;45.892;-123.962;2022-09-04T05:17:44;101807.31;;;15.12;86.98
51067;BME280;37112;45.892;-123.962;2022-09-04T05:20:17;101804.63;;;15.10;86.80
51067;BME280;37112;45.892;-123.962;2022-09-04T05:22:37;101803.89;;;15.07;86.78
51067;BME280;37112;45.892;-123.962;2022-09-04T05:25:02;101809.27;;;15.04;86.75
51067;BME280;37112;45.892;-123.962;2022-09-04T05:27:34;101804.41;;;15.02;86.77
51067;BME280;37112;45.892;-123.962;2022-09-04T05:29:54;101804.17;;;15.00;86.79
51067;BME280;37112;45.892;-123.962;2022-09-04T05:32:15;101808.98;;;14.98;86.63
51067;BME280;37112;45.892;-123.962;2022-09-04T05:34:46;101807.26;;;14.95;86.75
51067;BME280;37112;45.892;-123.962;2022-09-04T05:37:09;101808.08;;;14.93;86.62
51067;BME280;37112;45.892;-123.962;2022-09-04T05:39:29;101804.39;;;14.90;86.49
51067;BME280;37112;45.892;-123.962;2022-09-04T05:44:41;101807.77;;;14.84;86.41
51067;BME280;37112;45.892;-123.962;2022-09-04T05:47:06;101806.61;;;14.81;86.42
51067;BME280;37112;45.892;-123.962;2022-09-04T05:49:30;101799.17;;;14.77;86.37
51067;BME280;37112;45.892;-123.962;2022-09-04T05:52:07;101797.71;;;14.72;86.38
51067;BME280;37112;45.892;-123.962;2022-09-04T05:54:49;101794.11;;;14.70;86.56
51067;BME280;37112;45.892;-123.962;2022-09-04T05:57:16;101790.94;;;14.66;86.52
51067;BME280;37112;45.892;-123.962;2022-09-04T05:59:55;101789.46;;;14.62;86.51
51067;BME280;37112;45.892;-123.962;2022-09-04T06:05:17;101785.20;;;14.51;86.73
51067;BME280;37112;45.892;-123.962;2022-09-04T06:07:39;101785.61;;;14.47;86.81
51067;BME280;37112;45.892;-123.962;2022-09-04T06:10:06;101779.98;;;14.46;86.80
51067;BME280;37112;45.892;-123.962;2022-09-04T06:15:20;101777.76;;;14.42;86.82
51067;BME280;37112;45.892;-123.962;2022-09-04T06:18:02;101776.80;;;14.40;86.84
51067;BME280;37112;45.892;-123.962;2022-09-04T06:20:22;101780.98;;;14.36;86.83
51067;BME280;37112;45.892;-123.962;2022-09-04T06:22:52;101789.05;;;14.33;87.00
51067;BME280;37112;45.892;-123.962;2022-09-04T06:25:29;101788.55;;;14.33;87.09
51067;BME280;37112;45.892;-123.962;2022-09-04T06:28:04;101793.04;;;14.32;86.88
51067;BME280;37112;45.892;-123.962;2022-09-04T06:30:28;101794.77;;;14.30;86.83
51067;BME280;37112;45.892;-123.962;2022-09-04T06:33:08;101796.71;;;14.28;86.77
51067;BME280;37112;45.892;-123.962;2022-09-04T06:35:41;101793.80;;;14.26;86.70
51067;BME280;37112;45.892;-123.962;2022-09-04T06:38:10;101790.84;;;14.25;86.80
51067;BME280;37112;45.892;-123.962;2022-09-04T06:40:36;101795.40;;;14.23;86.58
51067;BME280;37112;45.892;-123.962;2022-09-04T06:43:03;101789.30;;;14.21;86.59
51067;BME280;37112;45.892;-123.962;2022-09-04T06:45:29;101788.30;;;14.20;86.46
51067;BME280;37112;45.892;-123.962;2022-09-04T06:47:55;101785.63;;;14.17;86.41
51067;BME280;37112;45.892;-123.962;2022-09-04T06:50:21;101772.64;;;14.13;86.30
51067;BME280;37112;45.892;-123.962;2022-09-04T06:52:42;101767.81;;;14.11;86.33
51067;BME280;37112;45.892;-123.962;2022-09-04T06:55:03;101766.52;;;14.09;86.46
51067;BME280;37112;45.892;-123.962;2022-09-04T06:57:40;101761.30;;;14.07;86.50
51067;BME280;37112;45.892;-123.962;2022-09-04T07:00:10;101750.90;;;14.02;86.57
51067;BME280;37112;45.892;-123.962;2022-09-04T07:02:33;101748.66;;;14.01;86.81
51067;BME280;37112;45.892;-123.962;2022-09-04T07:04:54;101736.80;;;13.99;86.97
51067;BME280;37112;45.892;-123.962;2022-09-04T07:07:17;101734.77;;;13.98;86.78
51067;BME280;37112;45.892;-123.962;2022-09-04T07:09:36;101724.14;;;13.96;86.89
51067;BME280;37112;45.892;-123.962;2022-09-04T07:14:44;101713.11;;;13.93;86.91
51067;BME280;37112;45.892;-123.962;2022-09-04T07:17:07;101707.42;;;13.92;86.88
51067;BME280;37112;45.892;-123.962;2022-09-04T07:22:17;101692.48;;;13.89;86.80
51067;BME280;37112;45.892;-123.962;2022-09-04T07:25:06;101686.75;;;13.87;86.84
51067;BME280;37112;45.892;-123.962;2022-09-04T07:27:31;101692.61;;;13.84;86.67
51067;BME280;37112;45.892;-123.962;2022-09-04T07:29:51;101698.96;;;13.83;86.76
51067;BME280;37112;45.892;-123.962;2022-09-04T07:32:13;101700.61;;;13.82;86.69
51067;BME280;37112;45.892;-123.962;2022-09-04T07:34:36;101704.38;;;13.82;86.66
51067;BME280;37112;45.892;-123.962;2022-09-04T07:36:57;101700.14;;;13.81;86.54
51067;BME280;37112;45.892;-123.962;2022-09-04T07:39:19;101702.33;;;13.80;86.45
51067;BME280;37112;45.892;-123.962;2022-09-04T07:41:41;101703.46;;;13.80;86.43
51067;BME280;37112;45.892;-123.962;2022-09-04T07:44:02;101715.29;;;13.79;86.27
51067;BME280;37112;45.892;-123.962;2022-09-04T07:46:20;101718.88;;;13.79;86.27
51067;BME280;37112;45.892;-123.962;2022-09-04T07:48:37;101717.54;;;13.77;86.03
51067;BME280;37112;45.892;-123.962;2022-09-04T07:50:58;101718.81;;;13.74;86.09
51067;BME280;37112;45.892;-123.962;2022-09-04T07:53:27;101726.32;;;13.72;86.07
51067;BME280;37112;45.892;-123.962;2022-09-04T07:55:45;101726.77;;;13.67;85.61
51067;BME280;37112;45.892;-123.962;2022-09-04T07:58:12;101722.73;;;13.60;85.62
51067;BME280;37112;45.892;-123.962;2022-09-04T08:00:36;101719.84;;;13.55;85.61
51067;BME280;37112;45.892;-123.962;2022-09-04T08:06:02;101716.70;;;13.49;85.86
51067;BME280;37112;45.892;-123.962;2022-09-04T08:08:49;101717.96;;;13.46;85.82
51067;BME280;37112;45.892;-123.962;2022-09-04T08:13:55;101720.30;;;13.40;85.77
51067;BME280;37112;45.892;-123.962;2022-09-04T08:16:13;101725.70;;;13.39;85.96
51067;BME280;37112;45.892;-123.962;2022-09-04T08:18:53;101729.85;;;13.38;85.95
51067;BME280;37112;45.892;-123.962;2022-09-04T08:21:24;101727.39;;;13.37;85.95
51067;BME280;37112;45.892;-123.962;2022-09-04T08:23:50;101727.11;;;13.36;85.85
51067;BME280;37112;45.892;-123.962;2022-09-04T08:26:12;101726.20;;;13.34;85.71
51067;BME280;37112;45.892;-123.962;2022-09-04T08:28:40;101727.58;;;13.32;85.55
51067;BME280;37112;45.892;-123.962;2022-09-04T08:31:02;101727.84;;;13.30;85.69
51067;BME280;37112;45.892;-123.962;2022-09-04T08:33:30;101722.96;;;13.29;85.82
51067;BME280;37112;45.892;-123.962;2022-09-04T08:35:54;101722.83;;;13.28;85.76
51067;BME280;37112;45.892;-123.962;2022-09-04T08:38:30;101722.77;;;13.26;85.66
51067;BME280;37112;45.892;-123.962;2022-09-04T08:43:34;101730.06;;;13.21;85.62
51067;BME280;37112;45.892;-123.962;2022-09-04T08:46:19;101734.91;;;13.19;85.55
51067;BME280;37112;45.892;-123.962;2022-09-04T08:52:00;101739.16;;;13.14;85.72
51067;BME280;37112;45.892;-123.962;2022-09-04T08:57:37;101745.53;;;13.12;85.80
51067;BME280;37112;45.892;-123.962;2022-09-04T09:00:05;101743.77;;;13.12;85.74
51067;BME280;37112;45.892;-123.962;2022-09-04T09:02:38;101743.63;;;13.11;85.85
51067;BME280;37112;45.892;-123.962;2022-09-04T09:08:05;101742.83;;;13.10;85.65
51067;BME280;37112;45.892;-123.962;2022-09-04T09:10:39;101735.30;;;13.07;85.68
51067;BME280;37112;45.892;-123.962;2022-09-04T09:18:40;101738.13;;;13.05;85.64
51067;BME280;37112;45.892;-123.962;2022-09-04T09:21:09;101735.54;;;13.04;85.65
51067;BME280;37112;45.892;-123.962;2022-09-04T09:23:35;101733.80;;;13.03;85.76
51067;BME280;37112;45.892;-123.962;2022-09-04T09:26:00;101740.01;;;13.03;85.55
51067;BME280;37112;45.892;-123.962;2022-09-04T09:34:09;101739.98;;;12.98;85.25
51067;BME280;37112;45.892;-123.962;2022-09-04T09:36:42;101743.17;;;12.96;85.23
51067;BME280;37112;45.892;-123.962;2022-09-04T09:39:32;101743.81;;;12.94;85.40
51067;BME280;37112;45.892;-123.962;2022-09-04T09:47:53;101758.04;;;12.89;85.29
51067;BME280;37112;45.892;-123.962;2022-09-04T09:53:23;101762.81;;;12.86;85.16
51067;BME280;37112;45.892;-123.962;2022-09-04T09:58:46;101768.89;;;12.86;85.53
51067;BME280;37112;45.892;-123.962;2022-09-04T10:01:14;101767.83;;;12.86;85.47
51067;BME280;37112;45.892;-123.962;2022-09-04T10:03:58;101766.11;;;12.88;85.56
51067;BME280;37112;45.892;-123.962;2022-09-04T10:07:01;101758.99;;;12.88;85.34
51067;BME280;37112;45.892;-123.962;2022-09-04T10:12:40;101754.63;;;12.89;85.31
51067;BME280;37112;45.892;-123.962;2022-09-04T10:20:52;101761.53;;;12.90;85.38
51067;BME280;37112;45.892;-123.962;2022-09-04T10:23:42;101759.85;;;12.88;85.20
51067;BME280;37112;45.892;-123.962;2022-09-04T10:26:21;101768.58;;;12.85;85.06
51067;BME280;37112;45.892;-123.962;2022-09-04T10:32:03;101763.40;;;12.76;84.72
51067;BME280;37112;45.892;-123.962;2022-09-04T10:37:23;101765.79;;;12.66;84.61
51067;BME280;37112;45.892;-123.962;2022-09-04T10:39:50;101762.30;;;12.63;84.61
51067;BME280;37112;45.892;-123.962;2022-09-04T10:42:38;101762.88;;;12.58;84.67
51067;BME280;37112;45.892;-123.962;2022-09-04T10:45:08;101762.64;;;12.57;84.72
51067;BME280;37112;45.892;-123.962;2022-09-04T10:47:39;101766.67;;;12.54;84.97
51067;BME280;37112;45.892;-123.962;2022-09-04T10:52:54;101761.31;;;12.52;84.83
51067;BME280;37112;45.892;-123.962;2022-09-04T10:55:33;101762.19;;;12.49;84.85
51067;BME280;37112;45.892;-123.962;2022-09-04T10:58:22;101763.47;;;12.48;85.08
51067;BME280;37112;45.892;-123.962;2022-09-04T11:00:46;101759.73;;;12.48;85.12
51067;BME280;37112;45.892;-123.962;2022-09-04T11:06:18;101757.95;;;12.46;85.13
51067;BME280;37112;45.892;-123.962;2022-09-04T11:08:50;101756.52;;;12.46;85.07
51067;BME280;37112;45.892;-123.962;2022-09-04T11:11:21;101749.30;;;12.44;85.19
51067;BME280;37112;45.892;-123.962;2022-09-04T11:14:00;101747.73;;;12.43;85.29
51067;BME280;37112;45.892;-123.962;2022-09-04T11:22:28;101742.25;;;12.40;85.20
51067;BME280;37112;45.892;-123.962;2022-09-04T11:25:12;101735.52;;;12.39;85.16
51067;BME280;37112;45.892;-123.962;2022-09-04T11:30:30;101723.84;;;12.35;85.04
51067;BME280;37112;45.892;-123.962;2022-09-04T11:41:37;101714.49;;;12.34;85.33
51067;BME280;37112;45.892;-123.962;2022-09-04T11:44:21;101709.05;;;12.32;85.26
51067;BME280;37112;45.892;-123.962;2022-09-04T11:49:41;101723.27;;;12.30;85.44
51067;BME280;37112;45.892;-123.962;2022-09-04T11:52:14;101723.30;;;12.29;85.48
51067;BME280;37112;45.892;-123.962;2022-09-04T11:54:49;101716.95;;;12.28;85.44
51067;BME280;37112;45.892;-123.962;2022-09-04T11:57:12;101715.53;;;12.27;85.52
51067;BME280;37112;45.892;-123.962;2022-09-04T11:59:44;101715.19;;;12.27;85.51
51067;BME280;37112;45.892;-123.962;2022-09-04T12:02:17;101723.43;;;12.27;85.47
51067;BME280;37112;45.892;-123.962;2022-09-04T12:04:49;101726.25;;;12.27;85.57
51067;BME280;37112;45.892;-123.962;2022-09-04T12:07:27;101729.78;;;12.27;85.58
51067;BME280;37112;45.892;-123.962;2022-09-04T12:10:18;101725.95;;;12.26;85.48
51067;BME280;37112;45.892;-123.962;2022-09-04T12:13:06;101728.02;;;12.25;85.37
51067;BME280;37112;45.892;-123.962;2022-09-04T12:18:30;101729.02;;;12.23;85.55
51067;BME280;37112;45.892;-123.962;2022-09-04T12:23:51;101727.91;;;12.23;85.60
51067;BME280;37112;45.892;-123.962;2022-09-04T12:26:30;101731.88;;;12.23;85.63
51067;BME280;37112;45.892;-123.962;2022-09-04T12:29:15;101738.75;;;12.24;85.74
51067;BME280;37112;45.892;-123.962;2022-09-04T12:34:34;101729.58;;;12.25;85.79
51067;BME280;37112;45.892;-123.962;2022-09-04T12:37:14;101729.55;;;12.25;85.87
51067;BME280;37112;45.892;-123.962;2022-09-04T12:40:05;101730.18;;;12.27;85.94
51067;BME280;37112;45.892;-123.962;2022-09-04T12:42:30;101733.50;;;12.28;85.97
51067;BME280;37112;45.892;-123.962;2022-09-04T12:44:55;101733.95;;;12.29;86.15
51067;BME280;37112;45.892;-123.962;2022-09-04T12:47:30;101731.52;;;12.32;86.34
51067;BME280;37112;45.892;-123.962;2022-09-04T12:50:02;101738.86;;;12.34;86.30
51067;BME280;37112;45.892;-123.962;2022-09-04T12:52:34;101741.26;;;12.35;86.25
51067;BME280;37112;45.892;-123.962;2022-09-04T12:54:57;101742.80;;;12.36;86.19
51067;BME280;37112;45.892;-123.962;2022-09-04T12:57:28;101741.45;;;12.38;86.27
51067;BME280;37112;45.892;-123.962;2022-09-04T12:59:53;101741.86;;;12.40;86.21
51067;BME280;37112;45.892;-123.962;2022-09-04T13:02:19;101747.24;;;12.42;86.45
51067;BME280;37112;45.892;-123.962;2022-09-04T13:04:43;101744.92;;;12.46;86.57
51067;BME280;37112;45.892;-123.962;2022-09-04T13:07:15;101745.44;;;12.49;86.46
51067;BME280;37112;45.892;-123.962;2022-09-04T13:09:41;101745.38;;;12.50;86.47
51067;BME280;37112;45.892;-123.962;2022-09-04T13:12:10;101749.13;;;12.53;86.57
51067;BME280;37112;45.892;-123.962;2022-09-04T13:14:41;101752.60;;;12.54;86.62
51067;BME280;37112;45.892;-123.962;2022-09-04T13:17:04;101752.23;;;12.58;86.69
51067;BME280;37112;45.892;-123.962;2022-09-04T13:19:25;101748.68;;;12.61;86.79
51067;BME280;37112;45.892;-123.962;2022-09-04T13:22:01;101755.20;;;12.65;86.94
51067;BME280;37112;45.892;-123.962;2022-09-04T13:24:29;101753.38;;;12.68;87.04
51067;BME280;37112;45.892;-123.962;2022-09-04T13:27:02;101760.98;;;12.72;87.10
51067;BME280;37112;45.892;-123.962;2022-09-04T13:29:28;101766.27;;;12.76;87.14
51067;BME280;37112;45.892;-123.962;2022-09-04T13:34:25;101773.40;;;12.82;87.30
51067;BME280;37112;45.892;-123.962;2022-09-04T13:36:50;101774.23;;;12.86;87.27
51067;BME280;37112;45.892;-123.962;2022-09-04T13:39:22;101774.15;;;12.90;87.39
51067;BME280;37112;45.892;-123.962;2022-09-04T13:44:30;101768.06;;;12.97;87.40
51067;BME280;37112;45.892;-123.962;2022-09-04T13:46:51;101769.43;;;13.00;87.50
51067;BME280;37112;45.892;-123.962;2022-09-04T13:49:12;101761.36;;;13.04;87.53
51067;BME280;37112;45.892;-123.962;2022-09-04T13:51:29;101759.79;;;13.06;87.41
51067;BME280;37112;45.892;-123.962;2022-09-04T13:53:56;101765.02;;;13.08;87.45
51067;BME280;37112;45.892;-123.962;2022-09-04T13:56:18;101766.67;;;13.10;87.42
51067;BME280;37112;45.892;-123.962;2022-09-04T13:58:39;101763.54;;;13.12;87.36
51067;BME280;37112;45.892;-123.962;2022-09-04T14:00:57;101761.80;;;13.15;87.34
51067;BME280;37112;45.892;-123.962;2022-09-04T14:03:15;101767.31;;;13.18;87.51
51067;BME280;37112;45.892;-123.962;2022-09-04T14:05:34;101776.19;;;13.22;87.58
51067;BME280;37112;45.892;-123.962;2022-09-04T14:07:55;101771.48;;;13.26;87.75
51067;BME280;37112;45.892;-123.962;2022-09-04T14:10:12;101768.51;;;13.31;87.68
51067;BME280;37112;45.892;-123.962;2022-09-04T14:12:56;101765.61;;;13.34;87.64
51067;BME280;37112;45.892;-123.962;2022-09-04T14:15:40;101761.97;;;13.38;87.71
51067;BME280;37112;45.892;-123.962;2022-09-04T14:18:06;101764.41;;;13.42;87.75
51067;BME280;37112;45.892;-123.962;2022-09-04T14:20:26;101769.84;;;13.46;87.82
51067;BME280;37112;45.892;-123.962;2022-09-04T14:22:50;101770.96;;;13.51;88.02
51067;BME280;37112;45.892;-123.962;2022-09-04T14:25:15;101771.05;;;13.58;88.30
51067;BME280;37112;45.892;-123.962;2022-09-04T14:27:35;101768.64;;;13.65;88.45
51067;BME280;37112;45.892;-123.962;2022-09-04T14:29:58;101761.96;;;13.72;88.49
51067;BME280;37112;45.892;-123.962;2022-09-04T14:32:21;101764.89;;;13.79;88.65
51067;BME280;37112;45.892;-123.962;2022-09-04T14:34:45;101763.33;;;13.87;88.64
51067;BME280;37112;45.892;-123.962;2022-09-04T14:37:08;101765.19;;;13.94;88.72
51067;BME280;37112;45.892;-123.962;2022-09-04T14:39:28;101762.18;;;14.02;88.84
51067;BME280;37112;45.892;-123.962;2022-09-04T14:42:00;101757.91;;;14.10;89.07
51067;BME280;37112;45.892;-123.962;2022-09-04T14:44:32;101762.83;;;14.19;89.23
51067;BME280;37112;45.892;-123.962;2022-09-04T14:47:01;101755.13;;;14.30;89.40
51067;BME280;37112;45.892;-123.962;2022-09-04T14:49:20;101755.09;;;14.41;89.53
51067;BME280;37112;45.892;-123.962;2022-09-04T14:51:36;101757.90;;;14.50;89.63
51067;BME280;37112;45.892;-123.962;2022-09-04T14:53:51;101760.41;;;14.61;89.76
51067;BME280;37112;45.892;-123.962;2022-09-04T14:56:25;101759.94;;;14.70;89.77